Map

Track Data

SID SEASON NUMBER BASIN SUBBASIN NAME ISO_TIME NATURE LAT LON WMO_WIND WMO_PRES WMO_AGENCY TRACK_TYPE DIST2LAND LANDFALL IFLAG USA_AGENCY USA_ATCF_ID USA_LAT USA_LON USA_RECORD USA_STATUS USA_WIND USA_PRES USA_SSHS USA_R34_NE USA_R34_SE USA_R34_SW USA_R34_NW USA_R50_NE USA_R50_SE USA_R50_SW USA_R50_NW USA_R64_NE USA_R64_SE USA_R64_SW USA_R64_NW USA_POCI USA_ROCI USA_RMW USA_EYE TOKYO_LAT TOKYO_LON TOKYO_GRADE TOKYO_WIND TOKYO_PRES TOKYO_R50_DIR TOKYO_R50_LONG TOKYO_R50_SHORT TOKYO_R30_DIR TOKYO_R30_LONG TOKYO_R30_SHORT TOKYO_LAND CMA_LAT CMA_LON CMA_CAT CMA_WIND CMA_PRES HKO_LAT HKO_LON HKO_CAT HKO_WIND HKO_PRES NEWDELHI_LAT NEWDELHI_LON NEWDELHI_GRADE NEWDELHI_WIND NEWDELHI_PRES NEWDELHI_CI NEWDELHI_DP NEWDELHI_POCI REUNION_LAT REUNION_LON REUNION_TYPE REUNION_WIND REUNION_PRES REUNION_TNUM REUNION_CI REUNION_RMW REUNION_R34_NE REUNION_R34_SE REUNION_R34_SW REUNION_R34_NW REUNION_R50_NE REUNION_R50_SE REUNION_R50_SW REUNION_R50_NW REUNION_R64_NE REUNION_R64_SE REUNION_R64_SW REUNION_R64_NW BOM_LAT BOM_LON BOM_TYPE BOM_WIND BOM_PRES BOM_TNUM BOM_CI BOM_RMW BOM_R34_NE BOM_R34_SE BOM_R34_SW BOM_R34_NW BOM_R50_NE BOM_R50_SE BOM_R50_SW BOM_R50_NW BOM_R64_NE BOM_R64_SE BOM_R64_SW BOM_R64_NW BOM_ROCI BOM_POCI BOM_EYE BOM_POS_METHOD BOM_PRES_METHOD NADI_LAT NADI_LON NADI_CAT NADI_WIND NADI_PRES WELLINGTON_LAT WELLINGTON_LON WELLINGTON_WIND WELLINGTON_PRES DS824_LAT DS824_LON DS824_STAGE DS824_WIND DS824_PRES TD9636_LAT TD9636_LON TD9636_STAGE TD9636_WIND TD9636_PRES TD9635_LAT TD9635_LON TD9635_WIND TD9635_PRES TD9635_ROCI NEUMANN_LAT NEUMANN_LON NEUMANN_CLASS NEUMANN_WIND NEUMANN_PRES MLC_LAT MLC_LON MLC_CLASS MLC_WIND MLC_PRES USA_GUST BOM_GUST BOM_GUST_PER REUNION_GUST REUNION_GUST_PER USA_SEAHGT USA_SEARAD_NE USA_SEARAD_SE USA_SEARAD_SW USA_SEARAD_NW STORM_SPEED STORM_DIR
1944356S15053 1945 87 SI MM NOT_NAMED 1944-12-21 06:00:00 NR -14.9000 52.6000 spur-split 228 226 __________O___ -1 -14.9000 52.6000 7 6 153
1944356S15053 1945 87 SI MM NOT_NAMED 1944-12-21 09:00:00 NR -15.1844 52.7481 spur-split 236 236 __________P___ -1 -15.1844 52.7481 7 6 153
1944356S15053 1945 87 SI MM NOT_NAMED 1944-12-21 12:00:00 NR -15.4651 52.8972 spur-split 257 257 __________P___ -1 -15.4651 52.8972 7 6 152
1944356S15053 1945 87 SI MM NOT_NAMED 1944-12-21 15:00:00 NR -15.7382 53.0476 spur-split 270 270 __________P___ -1 -15.7382 53.0476 7 6 151
1944356S15053 1945 87 SI MM NOT_NAMED 1944-12-21 18:00:00 NR -16.0000 53.2000 spur-split 296 296 __________O___ -1 -16.0000 53.2000 7 6 150
1944356S15053 1945 87 SI MM NOT_NAMED 1944-12-21 21:00:00 NR -16.2490 53.3542 spur-split 323 323 __________P___ -1 -16.2490 53.3542 7 6 149
1944356S15053 1945 87 SI MM NOT_NAMED 1944-12-22 00:00:00 NR -16.4925 53.5077 spur-split 343 343 __________P___ -1 -16.4925 53.5077 7 6 149
1944356S15053 1945 87 SI MM NOT_NAMED 1944-12-22 03:00:00 NR -16.7397 53.6573 spur-split 371 371 __________P___ -1 -16.7397 53.6573 7 6 151
1944356S15053 1945 87 SI MM NOT_NAMED 1944-12-22 06:00:00 NR -17.0000 53.8000 spur-split 395 395 __________O___ -1 -17.0000 53.8000 7 6 155
1944356S15053 1945 87 SI MM NOT_NAMED 1944-12-22 09:00:00 NR -17.2978 53.9363 spur-split 418 400 __________P___ -1 -17.2978 53.9363 7 7 157
1944356S15053 1945 87 SI MM NOT_NAMED 1944-12-22 12:00:00 NR -17.6075 54.0650 spur-split 400 365 __________P___ -1 -17.6075 54.0650 7 7 159
1944356S15053 1945 87 SI MM NOT_NAMED 1944-12-22 15:00:00 NR -17.9134 54.1862 spur-split 365 330 __________P___ -1 -17.9134 54.1862 7 6 159
1944356S15053 1945 87 SI MM NOT_NAMED 1944-12-22 18:00:00 NR -18.2000 54.3000 spur-split 330 305 __________O___ -1 -18.2000 54.3000 7 6 158
1944356S15053 1945 87 SI MM NOT_NAMED 1944-12-22 21:00:00 NR -18.4262 54.4035 spur-split 305 281 __________P___ -1 -18.4262 54.4035 7 5 156
1944356S15053 1945 87 SI MM NOT_NAMED 1944-12-23 00:00:00 NR -18.6349 54.5005 spur-split 281 256 __________P___ -1 -18.6349 54.5005 7 5 157
1944356S15053 1945 87 SI MM NOT_NAMED 1944-12-23 03:00:00 NR -18.8512 54.5972 spur-split 246 221 __________P___ -1 -18.8512 54.5972 7 5 158
1944356S15053 1945 87 SI MM NOT_NAMED 1944-12-23 06:00:00 NR -19.1000 54.7000 spur-split 221 186 __________O___ -1 -19.1000 54.7000 7 6 159
1944356S15053 1945 87 SI MM NOT_NAMED 1944-12-23 09:00:00 NR -19.4141 54.8218 spur-split 186 151 __________P___ -1 -19.4141 54.8218 7 7 161
1944356S15053 1945 87 SI MM NOT_NAMED 1944-12-23 12:00:00 NR -19.7625 54.9499 spur-split 140 102 __________P___ -1 -19.7625 54.9499 7 8 161
1944356S15053 1945 87 SI MM NOT_NAMED 1944-12-23 15:00:00 NR -20.1297 55.0781 spur-split 102 56 __________P___ -1 -20.1297 55.0781 7 8 162
1944356S15053 1945 87 SI MM NOT_NAMED 1944-12-23 18:00:00 NR -20.5000 55.2000 spur-split 56 22 __________O___ -1 -20.5000 55.2000 7 8 163
1944356S15053 1945 87 SI MM NOT_NAMED 1944-12-23 21:00:00 NR -20.8609 55.3109 spur-split 11 0 __________P___ -1 -20.8609 55.3109 7 7 165
1944356S15053 1945 87 SI MM NOT_NAMED 1944-12-24 00:00:00 NR -21.2125 55.4123 spur-split 0 0 __________P___ -1 -21.2125 55.4123 7 7 166
1944356S15053 1945 87 SI MM NOT_NAMED 1944-12-24 03:00:00 NR -21.5578 55.5076 spur-split 24 24 __________P___ -1 -21.5578 55.5076 7 7 166
1944356S15053 1945 87 SI MM NOT_NAMED 1944-12-24 06:00:00 NR -21.9000 55.6000 spur-split 55 __________O___ -1 -21.9000 55.6000 7 7 165

About IBTrACS Database

This database is a web-friendly format of International Best Track Archive for Climate Stewardship (IBTrACS), a global best track data archive curated by NOAA dating back to 1842.

Updated: 2021-10-25